Alfredo Rodriguez Ballon International Airport
SPQU : rendu visible

Aérodrome :











RETROUVEZ-NOUS SUR...

 
LOGIN :

S'inscrire | Disclaimer

   EN    FR    IT 

 









Légende :    VFR   VFR Marginal   IFR   IFR Intensif   IFR Très Intensif
Visi : 
Plafond : 
>= 8 km
>= 3000ft
5 à 8 km
1000 à 3000 ft
1500m à 5 km
500 à 1000 ft
800 à 1500m
200 à 500 ft
< 800m
< 200 ft
Symboles :   Orages  Brouillard  Fortes neiges  Fortes précipitations  Vent > 20 kt






- Altitude de l'aérodrome : 8405 ft
- Code IATA : AQP


SPQU - Alfredo Rodriguez Ballon International

DERNIER METAR :
  • 260900Z 35004KT 9999 SCT040 SCT100 12/11 Q1027 RMK PP000

METARs EXPIRÉS :
  • 260800Z 01003KT 9999 FEW020 SCT050 12/11 Q1027 RMK PP000
  • 260700Z 00000KT 9999 FEW020 SCT050 13/12 Q1027 RMK PP000

TAF COR TAF SPQU
Valide du 26 à 07h jusqu'au 27 à 06h UTC


260710Z 2607/2706 VRB02KT 9999 FEW020 SCT050 TX17/2618Z TN11/2610Z
TEMPO 2610/2612 4000 BR BKN012
FM261500 26010KT 9999 SCT050
BECMG 2621/2623 BKN008



MET'MAP, la Météo Aéronautique d'un coup d'oeil ! - Copyright ORBIFLY Décembre 2007 - Disclaimer

ORBIFLY MET'MAP TEAM :

Programmation & Développement : Alexandra Zaïnal
Sur une idée originale de : Baudouin d'Aumeries
Assistance à la programmation : Marc-Olivier Méhu
Soutien technique & logistique : Manuel Goepfert

Contact : metmap@orbifly.com




SOURCES & CREDITS :

   NOAA       Earth
Advisory